sensor_id;sensor_type;location;lat;lon;timestamp;P1;durP1;ratioP1;P2;durP2;ratioP2
2055;SDS011;1033;52.560;13.374;2023-04-24T00:01:22;7.00;;;6.30;;
2055;SDS011;1033;52.560;13.374;2023-04-24T00:03:53;6.63;;;5.93;;
2055;SDS011;1033;52.560;13.374;2023-04-24T00:06:27;6.10;;;5.60;;
2055;SDS011;1033;52.560;13.374;2023-04-24T00:08:59;7.90;;;6.63;;
2055;SDS011;1033;52.560;13.374;2023-04-24T00:11:29;8.83;;;6.53;;
2055;SDS011;1033;52.560;13.374;2023-04-24T00:13:58;5.40;;;4.90;;
2055;SDS011;1033;52.560;13.374;2023-04-24T00:16:27;6.77;;;5.67;;
2055;SDS011;1033;52.560;13.374;2023-04-24T00:18:57;5.57;;;5.07;;
2055;SDS011;1033;52.560;13.374;2023-04-24T00:21:28;5.47;;;4.93;;
2055;SDS011;1033;52.560;13.374;2023-04-24T00:23:59;7.30;;;5.20;;
2055;SDS011;1033;52.560;13.374;2023-04-24T00:26:28;6.60;;;6.00;;
2055;SDS011;1033;52.560;13.374;2023-04-24T00:28:57;6.10;;;5.40;;
2055;SDS011;1033;52.560;13.374;2023-04-24T00:31:26;12.43;;;5.80;;
2055;SDS011;1033;52.560;13.374;2023-04-24T00:33:55;6.27;;;5.67;;
2055;SDS011;1033;52.560;13.374;2023-04-24T00:36:25;6.30;;;5.37;;
2055;SDS011;1033;52.560;13.374;2023-04-24T00:38:56;6.97;;;6.27;;
2055;SDS011;1033;52.560;13.374;2023-04-24T00:41:26;7.07;;;6.37;;
2055;SDS011;1033;52.560;13.374;2023-04-24T00:43:55;5.23;;;4.73;;
2055;SDS011;1033;52.560;13.374;2023-04-24T00:46:24;6.73;;;5.87;;
2055;SDS011;1033;52.560;13.374;2023-04-24T00:48:54;6.53;;;5.93;;
2055;SDS011;1033;52.560;13.374;2023-04-24T00:51:24;5.80;;;5.30;;
2055;SDS011;1033;52.560;13.374;2023-04-24T00:53:54;7.50;;;4.83;;
2055;SDS011;1033;52.560;13.374;2023-04-24T00:56:24;6.70;;;6.20;;
2055;SDS011;1033;52.560;13.374;2023-04-24T00:58:54;7.27;;;5.87;;
2055;SDS011;1033;52.560;13.374;2023-04-24T01:01:23;6.67;;;6.07;;
2055;SDS011;1033;52.560;13.374;2023-04-24T01:03:53;6.20;;;5.30;;
2055;SDS011;1033;52.560;13.374;2023-04-24T01:06:23;6.53;;;5.80;;
2055;SDS011;1033;52.560;13.374;2023-04-24T01:08:55;6.77;;;5.83;;
2055;SDS011;1033;52.560;13.374;2023-04-24T01:11:29;6.53;;;5.57;;
2055;SDS011;1033;52.560;13.374;2023-04-24T01:13:58;5.90;;;5.40;;
2055;SDS011;1033;52.560;13.374;2023-04-24T01:16:29;6.40;;;5.80;;
2055;SDS011;1033;52.560;13.374;2023-04-24T01:19:00;6.20;;;5.60;;
2055;SDS011;1033;52.560;13.374;2023-04-24T01:21:29;6.80;;;6.13;;
2055;SDS011;1033;52.560;13.374;2023-04-24T01:24:04;6.10;;;5.50;;
2055;SDS011;1033;52.560;13.374;2023-04-24T01:26:33;7.00;;;6.30;;
2055;SDS011;1033;52.560;13.374;2023-04-24T01:29:03;7.73;;;5.23;;
2055;SDS011;1033;52.560;13.374;2023-04-24T01:31:33;7.00;;;6.30;;
2055;SDS011;1033;52.560;13.374;2023-04-24T01:34:03;7.23;;;5.30;;
2055;SDS011;1033;52.560;13.374;2023-04-24T01:36:33;5.63;;;5.13;;
2055;SDS011;1033;52.560;13.374;2023-04-24T01:39:05;7.70;;;6.70;;
2055;SDS011;1033;52.560;13.374;2023-04-24T01:41:41;5.97;;;5.37;;
2055;SDS011;1033;52.560;13.374;2023-04-24T01:44:10;6.83;;;6.23;;
2055;SDS011;1033;52.560;13.374;2023-04-24T01:46:40;6.23;;;5.60;;
2055;SDS011;1033;52.560;13.374;2023-04-24T01:49:10;7.30;;;5.30;;
2055;SDS011;1033;52.560;13.374;2023-04-24T01:51:39;7.20;;;5.30;;
2055;SDS011;1033;52.560;13.374;2023-04-24T01:54:09;6.50;;;5.30;;
2055;SDS011;1033;52.560;13.374;2023-04-24T01:56:39;6.70;;;5.97;;
2055;SDS011;1033;52.560;13.374;2023-04-24T01:59:10;6.50;;;5.93;;
2055;SDS011;1033;52.560;13.374;2023-04-24T02:01:39;6.10;;;5.60;;
2055;SDS011;1033;52.560;13.374;2023-04-24T02:04:09;6.50;;;5.80;;
2055;SDS011;1033;52.560;13.374;2023-04-24T02:06:38;7.37;;;6.70;;
2055;SDS011;1033;52.560;13.374;2023-04-24T02:09:07;6.33;;;5.73;;
2055;SDS011;1033;52.560;13.374;2023-04-24T02:11:38;5.67;;;5.13;;
2055;SDS011;1033;52.560;13.374;2023-04-24T02:14:07;7.03;;;6.33;;
2055;SDS011;1033;52.560;13.374;2023-04-24T02:16:39;7.97;;;6.07;;
2055;SDS011;1033;52.560;13.374;2023-04-24T02:19:09;6.70;;;6.10;;
2055;SDS011;1033;52.560;13.374;2023-04-24T02:21:38;10.83;;;7.27;;
2055;SDS011;1033;52.560;13.374;2023-04-24T02:24:09;5.73;;;4.70;;
2055;SDS011;1033;52.560;13.374;2023-04-24T02:26:40;6.17;;;5.67;;
2055;SDS011;1033;52.560;13.374;2023-04-24T02:29:09;9.97;;;6.73;;
2055;SDS011;1033;52.560;13.374;2023-04-24T02:31:40;7.60;;;6.80;;
2055;SDS011;1033;52.560;13.374;2023-04-24T02:34:09;7.93;;;6.50;;
2055;SDS011;1033;52.560;13.374;2023-04-24T02:36:38;6.37;;;5.87;;
2055;SDS011;1033;52.560;13.374;2023-04-24T02:39:07;7.63;;;6.80;;
2055;SDS011;1033;52.560;13.374;2023-04-24T02:41:40;6.93;;;6.33;;
2055;SDS011;1033;52.560;13.374;2023-04-24T02:44:09;9.13;;;6.53;;
2055;SDS011;1033;52.560;13.374;2023-04-24T02:46:39;7.97;;;7.30;;
2055;SDS011;1033;52.560;13.374;2023-04-24T02:49:08;6.57;;;6.07;;
2055;SDS011;1033;52.560;13.374;2023-04-24T02:51:38;9.70;;;6.40;;
2055;SDS011;1033;52.560;13.374;2023-04-24T02:54:08;6.23;;;5.70;;
2055;SDS011;1033;52.560;13.374;2023-04-24T02:56:37;6.80;;;6.13;;
2055;SDS011;1033;52.560;13.374;2023-04-24T02:59:08;7.37;;;5.80;;
2055;SDS011;1033;52.560;13.374;2023-04-24T03:01:38;6.23;;;5.63;;
2055;SDS011;1033;52.560;13.374;2023-04-24T03:04:07;6.80;;;5.87;;
2055;SDS011;1033;52.560;13.374;2023-04-24T03:06:37;7.43;;;6.73;;
2055;SDS011;1033;52.560;13.374;2023-04-24T03:09:06;10.70;;;8.40;;
2055;SDS011;1033;52.560;13.374;2023-04-24T03:11:35;8.80;;;6.50;;
2055;SDS011;1033;52.560;13.374;2023-04-24T03:14:08;6.73;;;6.07;;
2055;SDS011;1033;52.560;13.374;2023-04-24T03:16:37;7.57;;;6.97;;
2055;SDS011;1033;52.560;13.374;2023-04-24T03:19:06;6.37;;;5.77;;
2055;SDS011;1033;52.560;13.374;2023-04-24T03:21:44;6.70;;;6.10;;
2055;SDS011;1033;52.560;13.374;2023-04-24T03:24:13;7.87;;;7.00;;
2055;SDS011;1033;52.560;13.374;2023-04-24T03:26:42;7.50;;;6.70;;
2055;SDS011;1033;52.560;13.374;2023-04-24T03:29:48;8.17;;;7.37;;
2055;SDS011;1033;52.560;13.374;2023-04-24T03:32:27;6.53;;;5.83;;
2055;SDS011;1033;52.560;13.374;2023-04-24T03:34:59;7.20;;;6.60;;
2055;SDS011;1033;52.560;13.374;2023-04-24T03:37:36;7.07;;;6.43;;
2055;SDS011;1033;52.560;13.374;2023-04-24T03:40:28;7.20;;;6.50;;
2055;SDS011;1033;52.560;13.374;2023-04-24T03:43:01;7.90;;;7.10;;
2055;SDS011;1033;52.560;13.374;2023-04-24T03:45:32;7.50;;;6.50;;
2055;SDS011;1033;52.560;13.374;2023-04-24T03:48:01;8.80;;;6.80;;
2055;SDS011;1033;52.560;13.374;2023-04-24T03:50:31;7.10;;;6.50;;
2055;SDS011;1033;52.560;13.374;2023-04-24T03:53:01;8.53;;;7.47;;
2055;SDS011;1033;52.560;13.374;2023-04-24T03:55:36;7.33;;;6.00;;
2055;SDS011;1033;52.560;13.374;2023-04-24T03:58:05;7.17;;;6.40;;
2055;SDS011;1033;52.560;13.374;2023-04-24T04:00:36;7.37;;;6.60;;
2055;SDS011;1033;52.560;13.374;2023-04-24T04:03:25;7.53;;;6.80;;
2055;SDS011;1033;52.560;13.374;2023-04-24T04:05:54;9.53;;;6.30;;
2055;SDS011;1033;52.560;13.374;2023-04-24T04:08:24;7.10;;;6.40;;
2055;SDS011;1033;52.560;13.374;2023-04-24T04:10:53;6.53;;;5.90;;
2055;SDS011;1033;52.560;13.374;2023-04-24T04:13:22;7.00;;;6.40;;
2055;SDS011;1033;52.560;13.374;2023-04-24T04:15:52;7.30;;;6.37;;
2055;SDS011;1033;52.560;13.374;2023-04-24T04:18:22;8.73;;;7.50;;
2055;SDS011;1033;52.560;13.374;2023-04-24T04:20:51;15.27;;;7.43;;
2055;SDS011;1033;52.560;13.374;2023-04-24T04:23:20;7.53;;;6.70;;
2055;SDS011;1033;52.560;13.374;2023-04-24T04:26:28;6.90;;;6.30;;
2055;SDS011;1033;52.560;13.374;2023-04-24T04:29:04;7.47;;;6.77;;
2055;SDS011;1033;52.560;13.374;2023-04-24T04:31:39;6.53;;;5.90;;
2055;SDS011;1033;52.560;13.374;2023-04-24T04:34:11;7.40;;;6.70;;
2055;SDS011;1033;52.560;13.374;2023-04-24T04:36:41;7.80;;;6.63;;
2055;SDS011;1033;52.560;13.374;2023-04-24T04:39:40;7.87;;;6.03;;
2055;SDS011;1033;52.560;13.374;2023-04-24T04:42:16;7.73;;;5.93;;
2055;SDS011;1033;52.560;13.374;2023-04-24T04:44:45;7.77;;;6.00;;
2055;SDS011;1033;52.560;13.374;2023-04-24T04:47:20;7.30;;;5.63;;
2055;SDS011;1033;52.560;13.374;2023-04-24T04:49:52;5.00;;;4.50;;
2055;SDS011;1033;52.560;13.374;2023-04-24T04:52:25;6.40;;;5.80;;
2055;SDS011;1033;52.560;13.374;2023-04-24T04:55:03;8.77;;;5.17;;
2055;SDS011;1033;52.560;13.374;2023-04-24T04:57:53;6.70;;;4.70;;
2055;SDS011;1033;52.560;13.374;2023-04-24T05:00:24;6.93;;;5.27;;
2055;SDS011;1033;52.560;13.374;2023-04-24T05:03:07;6.30;;;5.70;;
2055;SDS011;1033;52.560;13.374;2023-04-24T05:05:51;5.73;;;5.07;;
2055;SDS011;1033;52.560;13.374;2023-04-24T05:08:21;4.10;;;3.70;;
2055;SDS011;1033;52.560;13.374;2023-04-24T05:10:54;6.63;;;4.50;;
2055;SDS011;1033;52.560;13.374;2023-04-24T05:13:26;5.07;;;4.60;;
2055;SDS011;1033;52.560;13.374;2023-04-24T05:16:23;9.20;;;6.30;;
2055;SDS011;1033;52.560;13.374;2023-04-24T05:18:55;5.93;;;4.60;;
2055;SDS011;1033;52.560;13.374;2023-04-24T05:21:30;8.00;;;4.33;;
2055;SDS011;1033;52.560;13.374;2023-04-24T05:24:00;5.23;;;4.50;;
2055;SDS011;1033;52.560;13.374;2023-04-24T05:26:49;5.33;;;4.30;;
2055;SDS011;1033;52.560;13.374;2023-04-24T05:29:23;5.20;;;4.70;;
2055;SDS011;1033;52.560;13.374;2023-04-24T05:31:53;5.30;;;4.23;;
2055;SDS011;1033;52.560;13.374;2023-04-24T05:34:29;5.80;;;4.07;;
2055;SDS011;1033;52.560;13.374;2023-04-24T05:36:58;5.33;;;3.83;;
2055;SDS011;1033;52.560;13.374;2023-04-24T05:39:27;5.53;;;4.47;;
2055;SDS011;1033;52.560;13.374;2023-04-24T05:41:58;4.17;;;3.77;;
2055;SDS011;1033;52.560;13.374;2023-04-24T05:44:28;4.60;;;3.80;;
2055;SDS011;1033;52.560;13.374;2023-04-24T05:46:58;4.57;;;4.00;;
2055;SDS011;1033;52.560;13.374;2023-04-24T05:49:31;4.67;;;4.10;;
2055;SDS011;1033;52.560;13.374;2023-04-24T05:52:03;4.97;;;3.60;;
2055;SDS011;1033;52.560;13.374;2023-04-24T05:54:36;10.10;;;4.10;;
2055;SDS011;1033;52.560;13.374;2023-04-24T05:57:06;5.23;;;3.57;;
2055;SDS011;1033;52.560;13.374;2023-04-24T05:59:51;3.97;;;3.60;;
2055;SDS011;1033;52.560;13.374;2023-04-24T06:02:21;7.13;;;3.90;;
2055;SDS011;1033;52.560;13.374;2023-04-24T06:04:52;6.37;;;5.13;;
2055;SDS011;1033;52.560;13.374;2023-04-24T06:07:23;4.63;;;3.60;;
2055;SDS011;1033;52.560;13.374;2023-04-24T06:09:54;4.10;;;3.70;;
2055;SDS011;1033;52.560;13.374;2023-04-24T06:12:25;3.47;;;3.17;;
2055;SDS011;1033;52.560;13.374;2023-04-24T06:14:59;4.90;;;4.33;;
2055;SDS011;1033;52.560;13.374;2023-04-24T06:17:49;4.07;;;3.00;;
2055;SDS011;1033;52.560;13.374;2023-04-24T06:20:21;4.30;;;3.47;;
2055;SDS011;1033;52.560;13.374;2023-04-24T06:22:51;4.07;;;3.20;;
2055;SDS011;1033;52.560;13.374;2023-04-24T06:25:20;2.60;;;2.30;;
2055;SDS011;1033;52.560;13.374;2023-04-24T06:27:49;2.50;;;2.03;;
2055;SDS011;1033;52.560;13.374;2023-04-24T06:30:19;4.50;;;2.80;;
2055;SDS011;1033;52.560;13.374;2023-04-24T06:32:54;3.63;;;3.30;;
2055;SDS011;1033;52.560;13.374;2023-04-24T06:35:38;3.33;;;2.87;;
2055;SDS011;1033;52.560;13.374;2023-04-24T06:38:07;3.20;;;2.60;;
2055;SDS011;1033;52.560;13.374;2023-04-24T06:40:37;3.17;;;2.37;;
2055;SDS011;1033;52.560;13.374;2023-04-24T06:43:07;5.03;;;2.83;;
2055;SDS011;1033;52.560;13.374;2023-04-24T06:45:37;4.60;;;2.90;;
2055;SDS011;1033;52.560;13.374;2023-04-24T06:48:07;2.63;;;2.10;;
2055;SDS011;1033;52.560;13.374;2023-04-24T06:50:37;3.00;;;2.33;;
2055;SDS011;1033;52.560;13.374;2023-04-24T06:53:06;4.30;;;2.77;;
2055;SDS011;1033;52.560;13.374;2023-04-24T06:55:39;3.30;;;2.27;;
2055;SDS011;1033;52.560;13.374;2023-04-24T06:58:10;3.20;;;2.10;;
2055;SDS011;1033;52.560;13.374;2023-04-24T07:00:39;3.50;;;2.93;;
2055;SDS011;1033;52.560;13.374;2023-04-24T07:03:08;3.77;;;2.83;;
2055;SDS011;1033;52.560;13.374;2023-04-24T07:05:40;2.67;;;1.97;;
2055;SDS011;1033;52.560;13.374;2023-04-24T07:08:09;1.97;;;1.57;;
2055;SDS011;1033;52.560;13.374;2023-04-24T07:10:38;2.33;;;1.80;;
2055;SDS011;1033;52.560;13.374;2023-04-24T07:13:07;2.33;;;1.93;;
2055;SDS011;1033;52.560;13.374;2023-04-24T07:15:37;2.07;;;1.40;;
2055;SDS011;1033;52.560;13.374;2023-04-24T07:18:08;2.33;;;1.50;;
2055;SDS011;1033;52.560;13.374;2023-04-24T07:20:37;1.83;;;1.50;;
2055;SDS011;1033;52.560;13.374;2023-04-24T07:23:08;1.80;;;1.27;;
2055;SDS011;1033;52.560;13.374;2023-04-24T07:25:37;1.60;;;1.30;;
2055;SDS011;1033;52.560;13.374;2023-04-24T07:28:06;1.60;;;1.50;;
2055;SDS011;1033;52.560;13.374;2023-04-24T07:30:36;2.70;;;1.10;;
2055;SDS011;1033;52.560;13.374;2023-04-24T07:33:05;1.40;;;1.10;;
2055;SDS011;1033;52.560;13.374;2023-04-24T07:35:35;3.53;;;1.50;;
2055;SDS011;1033;52.560;13.374;2023-04-24T07:38:06;3.70;;;1.50;;
2055;SDS011;1033;52.560;13.374;2023-04-24T07:40:35;2.37;;;1.47;;
2055;SDS011;1033;52.560;13.374;2023-04-24T07:43:08;1.90;;;0.97;;
2055;SDS011;1033;52.560;13.374;2023-04-24T07:45:41;2.07;;;1.10;;
2055;SDS011;1033;52.560;13.374;2023-04-24T07:48:11;1.70;;;1.07;;
2055;SDS011;1033;52.560;13.374;2023-04-24T07:50:43;1.70;;;1.00;;
2055;SDS011;1033;52.560;13.374;2023-04-24T07:53:18;1.53;;;1.10;;
2055;SDS011;1033;52.560;13.374;2023-04-24T07:55:49;1.93;;;1.23;;
2055;SDS011;1033;52.560;13.374;2023-04-24T07:58:19;2.10;;;1.10;;
2055;SDS011;1033;52.560;13.374;2023-04-24T08:00:49;4.53;;;2.17;;
2055;SDS011;1033;52.560;13.374;2023-04-24T08:03:22;2.50;;;1.27;;
2055;SDS011;1033;52.560;13.374;2023-04-24T08:05:52;2.03;;;1.10;;
2055;SDS011;1033;52.560;13.374;2023-04-24T08:08:23;4.37;;;1.27;;
2055;SDS011;1033;52.560;13.374;2023-04-24T08:10:57;1.97;;;1.50;;
2055;SDS011;1033;52.560;13.374;2023-04-24T08:13:29;1.60;;;0.93;;
2055;SDS011;1033;52.560;13.374;2023-04-24T08:15:58;1.67;;;1.10;;
2055;SDS011;1033;52.560;13.374;2023-04-24T08:18:28;1.40;;;1.00;;
2055;SDS011;1033;52.560;13.374;2023-04-24T08:20:57;1.53;;;1.17;;
2055;SDS011;1033;52.560;13.374;2023-04-24T08:23:29;2.30;;;1.10;;
2055;SDS011;1033;52.560;13.374;2023-04-24T08:25:59;2.30;;;0.93;;
2055;SDS011;1033;52.560;13.374;2023-04-24T08:28:31;3.33;;;1.00;;
2055;SDS011;1033;52.560;13.374;2023-04-24T08:31:00;3.50;;;1.40;;
2055;SDS011;1033;52.560;13.374;2023-04-24T08:33:30;2.43;;;0.97;;
2055;SDS011;1033;52.560;13.374;2023-04-24T08:36:01;1.40;;;1.17;;
2055;SDS011;1033;52.560;13.374;2023-04-24T08:38:33;1.90;;;1.30;;
2055;SDS011;1033;52.560;13.374;2023-04-24T08:41:02;2.07;;;1.37;;
2055;SDS011;1033;52.560;13.374;2023-04-24T08:43:32;2.20;;;1.20;;
2055;SDS011;1033;52.560;13.374;2023-04-24T08:46:03;1.30;;;1.00;;
2055;SDS011;1033;52.560;13.374;2023-04-24T08:48:37;4.83;;;1.27;;
2055;SDS011;1033;52.560;13.374;2023-04-24T08:51:07;1.27;;;0.87;;
2055;SDS011;1033;52.560;13.374;2023-04-24T08:53:39;2.80;;;1.00;;
2055;SDS011;1033;52.560;13.374;2023-04-24T08:56:09;1.80;;;1.13;;
2055;SDS011;1033;52.560;13.374;2023-04-24T08:58:39;2.23;;;1.10;;
2055;SDS011;1033;52.560;13.374;2023-04-24T09:01:08;1.80;;;1.10;;
2055;SDS011;1033;52.560;13.374;2023-04-24T09:03:38;2.43;;;1.20;;
2055;SDS011;1033;52.560;13.374;2023-04-24T09:06:08;2.07;;;1.03;;
2055;SDS011;1033;52.560;13.374;2023-04-24T09:08:40;1.70;;;1.10;;
2055;SDS011;1033;52.560;13.374;2023-04-24T09:11:11;1.80;;;1.30;;
2055;SDS011;1033;52.560;13.374;2023-04-24T09:13:41;2.13;;;1.07;;
2055;SDS011;1033;52.560;13.374;2023-04-24T09:16:11;2.17;;;1.20;;
2055;SDS011;1033;52.560;13.374;2023-04-24T09:18:41;2.17;;;1.10;;
2055;SDS011;1033;52.560;13.374;2023-04-24T09:21:11;3.10;;;1.10;;
2055;SDS011;1033;52.560;13.374;2023-04-24T09:23:41;2.50;;;1.20;;
2055;SDS011;1033;52.560;13.374;2023-04-24T09:26:11;2.50;;;1.83;;
2055;SDS011;1033;52.560;13.374;2023-04-24T09:28:41;1.70;;;1.10;;
2055;SDS011;1033;52.560;13.374;2023-04-24T09:31:12;1.70;;;1.10;;
2055;SDS011;1033;52.560;13.374;2023-04-24T09:33:53;2.40;;;1.33;;
2055;SDS011;1033;52.560;13.374;2023-04-24T09:36:27;1.47;;;1.10;;
2055;SDS011;1033;52.560;13.374;2023-04-24T09:39:01;1.40;;;0.90;;
2055;SDS011;1033;52.560;13.374;2023-04-24T09:41:35;3.80;;;1.70;;
2055;SDS011;1033;52.560;13.374;2023-04-24T09:44:12;3.43;;;1.13;;
2055;SDS011;1033;52.560;13.374;2023-04-24T09:46:43;2.00;;;1.50;;
2055;SDS011;1033;52.560;13.374;2023-04-24T09:49:13;2.77;;;1.10;;
2055;SDS011;1033;52.560;13.374;2023-04-24T09:51:44;2.63;;;1.17;;
2055;SDS011;1033;52.560;13.374;2023-04-24T09:54:15;2.57;;;1.20;;
2055;SDS011;1033;52.560;13.374;2023-04-24T09:56:47;2.37;;;1.40;;
2055;SDS011;1033;52.560;13.374;2023-04-24T09:59:17;2.20;;;1.60;;
2055;SDS011;1033;52.560;13.374;2023-04-24T10:01:47;3.00;;;1.30;;
2055;SDS011;1033;52.560;13.374;2023-04-24T10:04:18;1.67;;;1.53;;
2055;SDS011;1033;52.560;13.374;2023-04-24T10:06:50;3.23;;;1.30;;
2055;SDS011;1033;52.560;13.374;2023-04-24T10:09:24;3.10;;;1.47;;
2055;SDS011;1033;52.560;13.374;2023-04-24T10:11:54;1.70;;;1.40;;
2055;SDS011;1033;52.560;13.374;2023-04-24T10:14:27;1.77;;;1.17;;
2055;SDS011;1033;52.560;13.374;2023-04-24T10:16:57;2.60;;;1.20;;
2055;SDS011;1033;52.560;13.374;2023-04-24T10:19:27;1.80;;;1.10;;
2055;SDS011;1033;52.560;13.374;2023-04-24T10:21:57;1.27;;;1.00;;
2055;SDS011;1033;52.560;13.374;2023-04-24T10:24:33;2.30;;;1.80;;
2055;SDS011;1033;52.560;13.374;2023-04-24T10:27:05;2.07;;;1.23;;
2055;SDS011;1033;52.560;13.374;2023-04-24T10:29:36;2.83;;;1.57;;
2055;SDS011;1033;52.560;13.374;2023-04-24T10:32:10;1.63;;;1.00;;
2055;SDS011;1033;52.560;13.374;2023-04-24T10:34:39;2.57;;;1.17;;
2055;SDS011;1033;52.560;13.374;2023-04-24T10:37:09;1.90;;;1.30;;
2055;SDS011;1033;52.560;13.374;2023-04-24T10:39:41;2.27;;;1.20;;
2055;SDS011;1033;52.560;13.374;2023-04-24T10:42:14;2.60;;;1.30;;
2055;SDS011;1033;52.560;13.374;2023-04-24T10:44:44;2.50;;;1.10;;
2055;SDS011;1033;52.560;13.374;2023-04-24T10:47:16;2.00;;;1.27;;
2055;SDS011;1033;52.560;13.374;2023-04-24T10:49:45;1.70;;;1.30;;
2055;SDS011;1033;52.560;13.374;2023-04-24T10:52:51;2.07;;;1.30;;
2055;SDS011;1033;52.560;13.374;2023-04-24T10:58:12;2.40;;;1.53;;
2055;SDS011;1033;52.560;13.374;2023-04-24T11:00:43;3.83;;;1.03;;
2055;SDS011;1033;52.560;13.374;2023-04-24T11:03:25;5.73;;;2.20;;
2055;SDS011;1033;52.560;13.374;2023-04-24T11:05:57;5.10;;;1.60;;
2055;SDS011;1033;52.560;13.374;2023-04-24T11:08:29;2.83;;;1.30;;
2055;SDS011;1033;52.560;13.374;2023-04-24T11:11:03;2.40;;;1.40;;
2055;SDS011;1033;52.560;13.374;2023-04-24T11:16:39;3.00;;;1.50;;
2055;SDS011;1033;52.560;13.374;2023-04-24T11:19:18;5.13;;;1.23;;
2055;SDS011;1033;52.560;13.374;2023-04-24T11:21:55;2.57;;;2.37;;
2055;SDS011;1033;52.560;13.374;2023-04-24T11:24:28;3.27;;;1.77;;
2055;SDS011;1033;52.560;13.374;2023-04-24T11:27:06;3.20;;;1.37;;
2055;SDS011;1033;52.560;13.374;2023-04-24T11:29:41;3.97;;;1.23;;
2055;SDS011;1033;52.560;13.374;2023-04-24T11:32:15;1.23;;;0.87;;
2055;SDS011;1033;52.560;13.374;2023-04-24T11:34:47;2.30;;;1.27;;
2055;SDS011;1033;52.560;13.374;2023-04-24T11:37:18;2.53;;;1.17;;
2055;SDS011;1033;52.560;13.374;2023-04-24T11:39:50;5.73;;;1.40;;
2055;SDS011;1033;52.560;13.374;2023-04-24T11:42:25;4.17;;;2.07;;
2055;SDS011;1033;52.560;13.374;2023-04-24T11:44:55;3.57;;;2.00;;
2055;SDS011;1033;52.560;13.374;2023-04-24T11:47:28;5.87;;;4.17;;
2055;SDS011;1033;52.560;13.374;2023-04-24T11:50:00;6.73;;;2.03;;
2055;SDS011;1033;52.560;13.374;2023-04-24T11:52:36;11.03;;;5.43;;
2055;SDS011;1033;52.560;13.374;2023-04-24T11:55:22;8.10;;;1.90;;
2055;SDS011;1033;52.560;13.374;2023-04-24T11:57:58;1.70;;;1.30;;
2055;SDS011;1033;52.560;13.374;2023-04-24T12:00:31;4.27;;;1.83;;
2055;SDS011;1033;52.560;13.374;2023-04-24T12:03:03;4.43;;;2.43;;
2055;SDS011;1033;52.560;13.374;2023-04-24T12:05:34;6.10;;;3.67;;
2055;SDS011;1033;52.560;13.374;2023-04-24T12:08:07;2.47;;;2.13;;
2055;SDS011;1033;52.560;13.374;2023-04-24T12:10:37;1.90;;;1.67;;
2055;SDS011;1033;52.560;13.374;2023-04-24T12:13:09;2.27;;;1.90;;
2055;SDS011;1033;52.560;13.374;2023-04-24T12:15:43;2.37;;;2.17;;
2055;SDS011;1033;52.560;13.374;2023-04-24T12:18:13;3.03;;;1.90;;
2055;SDS011;1033;52.560;13.374;2023-04-24T12:20:44;2.40;;;1.87;;
2055;SDS011;1033;52.560;13.374;2023-04-24T12:23:14;3.47;;;1.80;;
2055;SDS011;1033;52.560;13.374;2023-04-24T12:25:44;1.60;;;1.30;;
2055;SDS011;1033;52.560;13.374;2023-04-24T12:28:15;1.63;;;1.43;;
2055;SDS011;1033;52.560;13.374;2023-04-24T12:30:46;3.23;;;1.70;;
2055;SDS011;1033;52.560;13.374;2023-04-24T12:33:17;1.87;;;1.67;;
2055;SDS011;1033;52.560;13.374;2023-04-24T12:35:47;4.40;;;1.37;;
2055;SDS011;1033;52.560;13.374;2023-04-24T12:38:22;2.33;;;1.70;;
2055;SDS011;1033;52.560;13.374;2023-04-24T12:41:01;3.10;;;1.70;;
2055;SDS011;1033;52.560;13.374;2023-04-24T12:43:37;2.80;;;1.47;;
2055;SDS011;1033;52.560;13.374;2023-04-24T12:46:06;1.20;;;1.07;;
2055;SDS011;1033;52.560;13.374;2023-04-24T12:48:36;1.97;;;1.37;;
2055;SDS011;1033;52.560;13.374;2023-04-24T12:51:06;2.43;;;1.50;;
2055;SDS011;1033;52.560;13.374;2023-04-24T12:53:35;1.60;;;1.40;;
2055;SDS011;1033;52.560;13.374;2023-04-24T12:56:05;3.37;;;1.50;;
2055;SDS011;1033;52.560;13.374;2023-04-24T12:58:34;1.83;;;1.03;;
2055;SDS011;1033;52.560;13.374;2023-04-24T13:01:05;1.77;;;1.10;;
2055;SDS011;1033;52.560;13.374;2023-04-24T13:03:34;2.07;;;1.00;;
2055;SDS011;1033;52.560;13.374;2023-04-24T13:06:04;5.23;;;1.40;;
2055;SDS011;1033;52.560;13.374;2023-04-24T13:08:33;1.70;;;1.13;;
2055;SDS011;1033;52.560;13.374;2023-04-24T13:11:03;2.87;;;2.27;;
2055;SDS011;1033;52.560;13.374;2023-04-24T13:13:32;3.90;;;1.20;;
2055;SDS011;1033;52.560;13.374;2023-04-24T13:16:03;1.97;;;1.27;;
2055;SDS011;1033;52.560;13.374;2023-04-24T13:18:33;2.40;;;1.80;;
2055;SDS011;1033;52.560;13.374;2023-04-24T13:21:03;3.50;;;1.47;;
2055;SDS011;1033;52.560;13.374;2023-04-24T13:23:35;3.43;;;1.20;;
2055;SDS011;1033;52.560;13.374;2023-04-24T13:26:08;2.13;;;1.30;;
2055;SDS011;1033;52.560;13.374;2023-04-24T13:28:40;2.90;;;1.30;;
2055;SDS011;1033;52.560;13.374;2023-04-24T13:34:58;2.40;;;1.40;;
2055;SDS011;1033;52.560;13.374;2023-04-24T13:37:29;2.13;;;1.43;;
2055;SDS011;1033;52.560;13.374;2023-04-24T13:39:58;3.40;;;1.33;;
2055;SDS011;1033;52.560;13.374;2023-04-24T13:42:27;3.80;;;2.40;;
2055;SDS011;1033;52.560;13.374;2023-04-24T13:44:57;3.67;;;1.60;;
2055;SDS011;1033;52.560;13.374;2023-04-24T13:47:42;3.60;;;1.30;;
2055;SDS011;1033;52.560;13.374;2023-04-24T13:50:14;1.83;;;1.37;;
2055;SDS011;1033;52.560;13.374;2023-04-24T13:52:43;5.20;;;1.50;;
2055;SDS011;1033;52.560;13.374;2023-04-24T13:55:16;1.87;;;1.20;;
2055;SDS011;1033;52.560;13.374;2023-04-24T13:57:45;9.73;;;1.50;;
2055;SDS011;1033;52.560;13.374;2023-04-24T14:00:16;3.50;;;1.40;;
2055;SDS011;1033;52.560;13.374;2023-04-24T14:02:46;1.83;;;1.30;;
2055;SDS011;1033;52.560;13.374;2023-04-24T14:05:17;1.70;;;1.10;;
2055;SDS011;1033;52.560;13.374;2023-04-24T14:07:48;1.60;;;1.23;;
2055;SDS011;1033;52.560;13.374;2023-04-24T14:10:17;2.70;;;1.40;;
2055;SDS011;1033;52.560;13.374;2023-04-24T14:12:47;5.70;;;0.97;;
2055;SDS011;1033;52.560;13.374;2023-04-24T14:15:17;1.20;;;0.87;;
2055;SDS011;1033;52.560;13.374;2023-04-24T14:17:47;1.67;;;1.37;;
2055;SDS011;1033;52.560;13.374;2023-04-24T14:20:19;1.73;;;1.07;;
2055;SDS011;1033;52.560;13.374;2023-04-24T14:22:49;3.20;;;1.67;;
2055;SDS011;1033;52.560;13.374;2023-04-24T14:25:18;1.70;;;1.13;;
2055;SDS011;1033;52.560;13.374;2023-04-24T14:27:51;2.63;;;1.20;;
2055;SDS011;1033;52.560;13.374;2023-04-24T14:30:20;2.20;;;1.77;;
2055;SDS011;1033;52.560;13.374;2023-04-24T14:32:50;2.40;;;1.30;;
2055;SDS011;1033;52.560;13.374;2023-04-24T14:35:28;3.30;;;1.47;;
2055;SDS011;1033;52.560;13.374;2023-04-24T14:38:00;1.50;;;1.13;;
2055;SDS011;1033;52.560;13.374;2023-04-24T14:40:30;1.53;;;1.43;;
2055;SDS011;1033;52.560;13.374;2023-04-24T14:43:02;1.63;;;1.03;;
2055;SDS011;1033;52.560;13.374;2023-04-24T14:45:32;2.60;;;1.47;;
2055;SDS011;1033;52.560;13.374;2023-04-24T14:48:01;3.00;;;1.50;;
2055;SDS011;1033;52.560;13.374;2023-04-24T14:50:35;3.00;;;2.30;;
2055;SDS011;1033;52.560;13.374;2023-04-24T14:53:07;3.67;;;2.40;;
2055;SDS011;1033;52.560;13.374;2023-04-24T14:55:37;3.63;;;1.43;;
2055;SDS011;1033;52.560;13.374;2023-04-24T14:58:07;4.50;;;3.53;;
2055;SDS011;1033;52.560;13.374;2023-04-24T15:00:36;1.80;;;1.30;;
2055;SDS011;1033;52.560;13.374;2023-04-24T15:03:05;5.77;;;1.70;;
2055;SDS011;1033;52.560;13.374;2023-04-24T15:05:37;1.90;;;1.40;;
2055;SDS011;1033;52.560;13.374;2023-04-24T15:08:07;2.00;;;1.80;;
2055;SDS011;1033;52.560;13.374;2023-04-24T15:10:36;1.90;;;1.23;;
2055;SDS011;1033;52.560;13.374;2023-04-24T15:13:06;2.43;;;2.00;;
2055;SDS011;1033;52.560;13.374;2023-04-24T15:15:35;2.10;;;1.70;;
2055;SDS011;1033;52.560;13.374;2023-04-24T15:18:05;2.27;;;2.07;;
2055;SDS011;1033;52.560;13.374;2023-04-24T15:20:39;2.70;;;1.37;;
2055;SDS011;1033;52.560;13.374;2023-04-24T15:23:08;2.57;;;1.60;;
2055;SDS011;1033;52.560;13.374;2023-04-24T15:25:38;3.53;;;1.67;;
2055;SDS011;1033;52.560;13.374;2023-04-24T15:28:10;2.50;;;1.70;;
2055;SDS011;1033;52.560;13.374;2023-04-24T15:30:40;3.23;;;1.77;;
2055;SDS011;1033;52.560;13.374;2023-04-24T15:33:10;1.83;;;1.63;;
2055;SDS011;1033;52.560;13.374;2023-04-24T15:35:40;2.63;;;2.03;;
2055;SDS011;1033;52.560;13.374;2023-04-24T15:38:10;5.77;;;2.60;;